Camellia — VRCP9 — position and weather

sailwx.info

Track history (hours):
 
Tides and Currents Weather Stations Pressure Air Temp Water Temp Dewpoint Dewpoint Depression Visibility Wind Speed Wind Dir Waves Ship Positions

Camellia

Last reported at 2014-Nov-21 21:33 UTC. Time now 2014-Nov-24 17:52 UTC.
Position N 36°43' E 023°56'.

Length 222 m; draft 11.3 m.

Type: Ship (hazmat cat C). MMSI: 477791900.

Date/timePositionNaut miles runAvg speedWind from/ knotsBaromVisibWave heightAir tempDewpointWater temp
2014-Nov-21 21:33N 36°43' E 023°56'2020.6
2014-Nov-21 20:34N 36°56' E 024°15'2120.9
2014-Nov-21 19:34N 37°06' E 024°38'2120.6
2014-Nov-21 18:33N 37°14' E 025°02'2020.5
2014-Nov-21 17:34N 37°20' E 025°27'1716.6
2014-Nov-21 16:33N 37°32' E 025°41'2020.5
2014-Nov-21 15:34N 37°52' E 025°43'63 1.7
2014-Nov-20 02:24N 38°53' E 025°60'  
2014-Nov-17 03:22N 41°15' E 029°08'  
2014-Nov-14 04:33N 44°00' E 033°48'1414.0
2014-Nov-14 03:34N 43°60' E 034°08'1413.7
2014-Nov-14 02:34N 43°60' E 034°27'1313.4
2014-Nov-14 01:33N 43°60' E 034°45'1313.1
2014-Nov-14 00:33N 44°00' E 035°04'1312.8
2014-Nov-13 23:31N 43°60' E 035°22'1213.0
2014-Nov-13 22:34N 44°00' E 035°40'1713.1
2014-Nov-13 21:15N 44°01' E 036°03'2413.3
2014-Nov-13 19:29N 44°11' E 036°33'3213.3
2014-Nov-13 17:06N 44°24' E 037°13'713.5
2014-Nov-13 16:34N 44°28' E 037°22'1312.9
2014-Nov-13 15:34N 44°33' E 037°39'1111.0
2014-Nov-13 14:34N 44°40' E 037°50'3 3.4
2014-Nov-13 13:34N 44°43' E 037°49'0 0.0
2014-Nov-13 12:32N 44°43' E 037°49'0 0.0
2014-Nov-13 11:32N 44°43' E 037°49'0 0.0
2014-Nov-13 10:32N 44°43' E 037°49'0 0.0
2014-Nov-13 09:32N 44°43' E 037°49'0 0.0
2014-Nov-13 08:32N 44°43' E 037°49'0 0.0
2014-Nov-13 07:31N 44°43' E 037°49'0 0.0
2014-Nov-13 06:31N 44°43' E 037°49'0 0.0
2014-Nov-13 05:31N 44°43' E 037°49'0 0.0
2014-Nov-13 04:31N 44°43' E 037°49'0 0.0
2014-Nov-13 03:31N 44°43' E 037°49'0 0.0
2014-Nov-13 02:31N 44°43' E 037°49'0 0.0
2014-Nov-13 01:31N 44°43' E 037°49'0 0.0
2014-Nov-13 00:31N 44°43' E 037°49'0 0.0
2014-Nov-12 23:31N 44°43' E 037°49'0 0.0
2014-Nov-12 22:31N 44°43' E 037°49'0 0.0
2014-Nov-12 21:28N 44°43' E 037°49'0 0.0
2014-Nov-12 20:31N 44°43' E 037°49'0 0.0
2014-Nov-12 19:31N 44°43' E 037°49'0 0.2
2014-Nov-12 18:33N 44°43' E 037°49'5 4.9
2014-Nov-12 17:33N 44°39' E 037°51'3 3.3
2014-Nov-12 16:33N 44°35' E 037°51'9 9.1
2014-Nov-12 15:33N 44°29' E 037°41'0 0.1
2014-Nov-12 14:33N 44°29' E 037°41'0 0.1
2014-Nov-12 13:33N 44°29' E 037°41'0 0.2
2014-Nov-12 12:33N 44°29' E 037°42'1 1.3
2014-Nov-12 11:33N 44°30' E 037°40'5 5.2
2014-Nov-12 10:33N 44°29' E 037°33'1 0.8
2014-Nov-12 09:33N 44°28' E 037°34'1 0.8
2014-Nov-12 08:33N 44°28' E 037°34'1 1.0
2014-Nov-12 07:33N 44°27' E 037°35'1 1.3
2014-Nov-12 06:32N 44°26' E 037°37'1 1.3
2014-Nov-12 05:33N 44°26' E 037°38'1 1.1
2014-Nov-12 04:33N 44°25' E 037°40'1 1.2
2014-Nov-12 03:33N 44°25' E 037°41'1 1.1
2014-Nov-12 02:33N 44°24' E 037°43'1 1.1
2014-Nov-12 01:33N 44°24' E 037°44'1 0.9
2014-Nov-12 00:33N 44°24' E 037°46'7 6.5
2014-Nov-11 23:32N 44°17' E 037°43'  
Track history (hours):
 
Tides and Currents Weather Stations Pressure Air Temp Water Temp Dewpoint Dewpoint Depression Visibility Wind Speed Wind Dir Waves Ship Positions

Camellia

Last reported at 2014-Nov-21 21:33 UTC. Time now 2014-Nov-24 17:52 UTC.
Position N 36°43' E 023°56'.

Length 222 m; draft 11.3 m.

Type: Ship (hazmat cat C). MMSI: 477791900.

Date/timePositionNaut miles runAvg speedWind from/ knotsBaromVisibWave heightAir tempDewpointWater temp
2014-Nov-21 21:33N 36°43' E 023°56'2020.6
2014-Nov-21 20:34N 36°56' E 024°15'2120.9
2014-Nov-21 19:34N 37°06' E 024°38'2120.6
2014-Nov-21 18:33N 37°14' E 025°02'2020.5
2014-Nov-21 17:34N 37°20' E 025°27'1716.6
2014-Nov-21 16:33N 37°32' E 025°41'2020.5
2014-Nov-21 15:34N 37°52' E 025°43'63 1.7
2014-Nov-20 02:24N 38°53' E 025°60'  
2014-Nov-17 03:22N 41°15' E 029°08'  
2014-Nov-14 04:33N 44°00' E 033°48'1414.0
2014-Nov-14 03:34N 43°60' E 034°08'1413.7
2014-Nov-14 02:34N 43°60' E 034°27'1313.4
2014-Nov-14 01:33N 43°60' E 034°45'1313.1
2014-Nov-14 00:33N 44°00' E 035°04'1312.8
2014-Nov-13 23:31N 43°60' E 035°22'1213.0
2014-Nov-13 22:34N 44°00' E 035°40'1713.1
2014-Nov-13 21:15N 44°01' E 036°03'2413.3
2014-Nov-13 19:29N 44°11' E 036°33'3213.3
2014-Nov-13 17:06N 44°24' E 037°13'713.5
2014-Nov-13 16:34N 44°28' E 037°22'1312.9
2014-Nov-13 15:34N 44°33' E 037°39'1111.0
2014-Nov-13 14:34N 44°40' E 037°50'3 3.4
2014-Nov-13 13:34N 44°43' E 037°49'0 0.0
2014-Nov-13 12:32N 44°43' E 037°49'0 0.0
2014-Nov-13 11:32N 44°43' E 037°49'0 0.0
2014-Nov-13 10:32N 44°43' E 037°49'0 0.0
2014-Nov-13 09:32N 44°43' E 037°49'0 0.0
2014-Nov-13 08:32N 44°43' E 037°49'0 0.0
2014-Nov-13 07:31N 44°43' E 037°49'0 0.0
2014-Nov-13 06:31N 44°43' E 037°49'0 0.0
2014-Nov-13 05:31N 44°43' E 037°49'0 0.0
2014-Nov-13 04:31N 44°43' E 037°49'0 0.0
2014-Nov-13 03:31N 44°43' E 037°49'0 0.0
2014-Nov-13 02:31N 44°43' E 037°49'0 0.0
2014-Nov-13 01:31N 44°43' E 037°49'0 0.0
2014-Nov-13 00:31N 44°43' E 037°49'0 0.0
2014-Nov-12 23:31N 44°43' E 037°49'0 0.0
2014-Nov-12 22:31N 44°43' E 037°49'0 0.0
2014-Nov-12 21:28N 44°43' E 037°49'0 0.0
2014-Nov-12 20:31N 44°43' E 037°49'0 0.0
2014-Nov-12 19:31N 44°43' E 037°49'0 0.2
2014-Nov-12 18:33N 44°43' E 037°49'5 4.9
2014-Nov-12 17:33N 44°39' E 037°51'3 3.3
2014-Nov-12 16:33N 44°35' E 037°51'9 9.1
2014-Nov-12 15:33N 44°29' E 037°41'0 0.1
2014-Nov-12 14:33N 44°29' E 037°41'0 0.1
2014-Nov-12 13:33N 44°29' E 037°41'0 0.2
2014-Nov-12 12:33N 44°29' E 037°42'1 1.3
2014-Nov-12 11:33N 44°30' E 037°40'5 5.2
2014-Nov-12 10:33N 44°29' E 037°33'1 0.8
2014-Nov-12 09:33N 44°28' E 037°34'1 0.8
2014-Nov-12 08:33N 44°28' E 037°34'1 1.0
2014-Nov-12 07:33N 44°27' E 037°35'1 1.3
2014-Nov-12 06:32N 44°26' E 037°37'1 1.3
2014-Nov-12 05:33N 44°26' E 037°38'1 1.1
2014-Nov-12 04:33N 44°25' E 037°40'1 1.2
2014-Nov-12 03:33N 44°25' E 037°41'1 1.1
2014-Nov-12 02:33N 44°24' E 037°43'1 1.1
2014-Nov-12 01:33N 44°24' E 037°44'1 0.9
2014-Nov-12 00:33N 44°24' E 037°46'7 6.5
2014-Nov-11 23:32N 44°17' E 037°43'  

Dump ship's entire track history